Time;durP1;ratioP1;P1;durP2;ratioP2;P2;SDS_P1;SDS_P2;PMS_P1;PMS_P2;Temp;Humidity;BMP_temperature;BMP_pressure;BME280_temperature;BME280_humidity;BME280_pressure;Samples;Min_cycle;Max_cycle;Signal;HPM_P1;HPM_P2
2022/05/11 00:01:15;;;;;;;17.80;13.38;;;;;;;-146.18;100.00;67994.34;10139274;28;20089;-67
2022/05/11 00:06:12;;;;;;;21.23;14.48;;;;;;;-146.18;100.00;67994.34;10136087;28;20042;-67
2022/05/11 00:11:09;;;;;;;19.30;14.13;;;;;;;-146.18;100.00;67994.34;10142200;28;20575;-67
2022/05/11 00:16:05;;;;;;;19.70;14.95;;;;;;;-146.18;100.00;67994.34;10140175;28;20143;-67
2022/05/11 00:21:02;;;;;;;23.10;15.15;;;;;;;-146.18;100.00;67994.34;10142273;28;20563;-67
2022/05/11 00:25:59;;;;;;;21.65;13.65;;;;;;;-146.18;100.00;67994.34;10139916;28;20054;-64
2022/05/11 00:30:55;;;;;;;24.35;16.17;;;;;;;-146.18;100.00;67994.34;10141941;28;20077;-64
2022/05/11 00:35:52;;;;;;;20.63;14.63;;;;;;;-146.18;100.00;67994.34;10135949;28;20104;-67
2022/05/11 00:41:00;;;;;;;21.88;15.32;;;;;;;-146.18;100.00;67994.34;10139803;28;20105;-67
2022/05/11 00:46:10;;;;;;;18.90;15.50;;;;;;;-146.18;100.00;67994.34;10138261;28;20078;-65
2022/05/11 00:51:10;;;;;;;24.55;15.15;;;;;;;-146.18;100.00;67994.34;10135369;28;20137;-66
2022/05/11 00:56:07;;;;;;;21.08;14.02;;;;;;;-146.18;100.00;67994.34;10140075;28;20034;-66
2022/05/11 01:01:03;;;;;;;19.42;14.15;;;;;;;-146.18;100.00;67994.34;10137804;28;20507;-66
2022/05/11 01:06:00;;;;;;;22.52;16.17;;;;;;;-146.18;100.00;67994.34;10134922;28;20047;-66
2022/05/11 01:11:01;;;;;;;23.20;15.30;;;;;;;-146.18;100.00;67994.34;10143054;28;20149;-66
2022/05/11 01:15:59;;;;;;;25.67;16.67;;;;;;;-146.18;100.00;67994.34;10141575;28;20445;-66
2022/05/11 01:20:55;;;;;;;27.02;18.00;;;;;;;-146.18;100.00;67994.34;10141173;28;20047;-65
2022/05/11 01:25:53;;;;;;;21.55;15.73;;;;;;;-146.18;100.00;67994.34;10140221;28;20161;-66
2022/05/11 01:31:01;;;;;;;21.58;15.98;;;;;;;-146.18;100.00;67994.34;10137243;28;20046;-64
2022/05/11 01:36:09;;;;;;;20.90;15.40;;;;;;;-146.18;100.00;67994.34;10146348;28;20065;-65
2022/05/11 01:41:08;;;;;;;23.23;15.35;;;;;;;-146.18;100.00;67994.34;10149251;28;20043;-65
2022/05/11 01:46:05;;;;;;;23.38;16.05;;;;;;;-146.18;100.00;67994.34;10141317;28;20570;-65
2022/05/11 01:51:02;;;;;;;19.55;15.45;;;;;;;-146.18;100.00;67994.34;10148174;28;20046;-65
2022/05/11 01:55:59;;;;;;;18.25;13.40;;;;;;;-146.18;100.00;67994.34;10145248;28;20169;-68
2022/05/11 02:00:56;;;;;;;19.45;14.15;;;;;;;-146.18;100.00;67994.34;10144126;28;20057;-64
2022/05/11 02:11:13;;;;;;;17.60;13.25;;;;;;;-146.18;100.00;67994.34;10148000;28;20129;-67
2022/05/11 02:16:10;;;;;;;18.90;13.95;;;;;;;-146.18;100.00;67994.34;10140471;28;20070;-67
2022/05/11 02:21:07;;;;;;;21.38;15.35;;;;;;;-146.18;100.00;67994.34;10148308;28;20125;-65
2022/05/11 02:26:04;;;;;;;20.77;13.45;;;;;;;-146.18;100.00;67994.34;10146818;28;20572;-64
2022/05/11 02:31:01;;;;;;;19.05;13.38;;;;;;;-146.18;100.00;67994.34;10147553;28;20083;-64
2022/05/11 02:35:57;;;;;;;16.80;13.18;;;;;;;-146.18;100.00;67994.34;10144901;28;20419;-64
2022/05/11 02:40:54;;;;;;;16.70;13.35;;;;;;;-146.18;100.00;67994.34;10145187;28;20046;-64
2022/05/11 02:45:51;;;;;;;17.20;12.48;;;;;;;-146.18;100.00;67994.34;10146727;28;22259;-66
2022/05/11 02:50:56;;;;;;;17.05;13.63;;;;;;;-146.18;100.00;67994.34;10146906;28;20042;-66
2022/05/11 02:55:53;;;;;;;18.23;12.93;;;;;;;-146.18;100.00;67994.34;10144417;28;20089;-66
2022/05/11 03:00:51;;;;;;;17.67;12.20;;;;;;;-146.18;100.00;67994.34;10145650;28;20124;-67
2022/05/11 03:05:48;;;;;;;20.40;13.30;;;;;;;-146.18;100.00;67994.34;10143396;28;20058;-65
2022/05/11 03:10:45;;;;;;;17.38;12.35;;;;;;;-146.18;100.00;67994.34;10145737;28;20116;-68
2022/05/11 03:15:42;;;;;;;15.73;12.32;;;;;;;-146.18;100.00;67994.34;10147000;28;20137;-67
2022/05/11 03:20:38;;;;;;;17.77;13.18;;;;;;;-146.18;100.00;67994.34;10142593;28;20093;-66
2022/05/11 03:25:36;;;;;;;17.88;12.23;;;;;;;-146.18;100.00;67994.34;10142265;28;20516;-66
2022/05/11 03:30:32;;;;;;;17.30;11.88;;;;;;;-146.18;100.00;67994.34;10136002;28;20125;-66
2022/05/11 03:35:29;;;;;;;16.65;12.70;;;;;;;-146.18;100.00;67994.34;10148318;28;20064;-66
2022/05/11 03:40:26;;;;;;;16.40;12.43;;;;;;;-146.18;100.00;67994.34;10143085;28;20057;-64
2022/05/11 03:45:25;;;;;;;15.27;12.23;;;;;;;-146.18;100.00;67994.34;10139439;28;20057;-64
2022/05/11 03:50:23;;;;;;;15.77;12.43;;;;;;;-146.18;100.00;67994.34;10157438;28;20050;-63
2022/05/11 03:55:21;;;;;;;14.25;11.98;;;;;;;-146.18;100.00;67994.34;10139579;28;20054;-62
2022/05/11 04:00:21;;;;;;;16.15;12.10;;;;;;;-146.18;100.00;67994.34;10141595;28;20046;-62
2022/05/11 04:05:19;;;;;;;19.38;13.18;;;;;;;-146.18;100.00;67994.34;10125930;28;20053;-62
2022/05/11 04:10:17;;;;;;;17.50;12.23;;;;;;;-146.18;100.00;67994.34;10131761;28;20514;-62
2022/05/11 04:15:15;;;;;;;17.17;12.18;;;;;;;-146.18;100.00;67994.34;10126710;28;20096;-64
2022/05/11 04:20:14;;;;;;;16.88;12.98;;;;;;;-146.18;100.00;67994.34;10135385;28;20512;-64
2022/05/11 04:25:15;;;;;;;18.17;12.48;;;;;;;-146.18;100.00;67994.34;10134405;28;20133;-62
2022/05/11 04:30:14;;;;;;;15.60;11.63;;;;;;;-146.18;100.00;67994.34;10146150;28;20133;-64
2022/05/11 04:35:11;;;;;;;14.27;11.35;;;;;;;-146.18;100.00;67994.34;10151819;28;20101;-65
2022/05/11 04:40:10;;;;;;;16.73;12.02;;;;;;;-146.18;100.00;67994.34;10136785;28;20046;-63
2022/05/11 04:45:12;;;;;;;18.20;12.38;;;;;;;-146.18;100.00;67994.34;10141937;28;20049;-66
2022/05/11 04:50:11;;;;;;;14.73;11.82;;;;;;;-146.18;100.00;67994.34;10136567;28;20148;-66
2022/05/11 04:55:14;;;;;;;16.83;12.85;;;;;;;-146.18;100.00;67994.34;10139994;28;20058;-66
2022/05/11 05:00:12;;;;;;;18.15;12.57;;;;;;;-146.18;100.00;67994.34;10145435;28;20049;-65
2022/05/11 05:05:10;;;;;;;18.88;12.38;;;;;;;-146.18;100.00;67994.34;10139165;28;20639;-66
2022/05/11 05:10:10;;;;;;;15.38;12.20;;;;;;;-146.18;100.00;67994.34;10153161;28;20049;-65
2022/05/11 05:15:07;;;;;;;17.52;12.93;;;;;;;-146.18;100.00;67994.34;10152507;28;20061;-66
2022/05/11 05:20:07;;;;;;;19.10;13.63;;;;;;;-146.18;100.00;67994.34;10150879;28;20039;-65
2022/05/11 05:25:04;;;;;;;18.40;13.30;;;;;;;-146.18;100.00;67994.34;10137044;28;20314;-65
2022/05/11 05:35:19;;;;;;;19.48;13.52;;;;;;;-146.18;100.00;67994.34;10150424;28;20058;-66
2022/05/11 05:40:15;;;;;;;16.70;12.75;;;;;;;-146.18;100.00;67994.34;10153465;28;20621;-65
2022/05/11 05:45:12;;;;;;;16.90;13.75;;;;;;;-146.18;100.00;67994.34;10153130;28;20088;-65
2022/05/11 05:50:09;;;;;;;22.13;13.57;;;;;;;-146.18;100.00;67994.34;10139936;28;20043;-65
2022/05/11 05:55:06;;;;;;;18.70;13.43;;;;;;;-146.18;100.00;67994.34;10151201;28;20081;-65
2022/05/11 06:00:03;;;;;;;17.63;12.98;;;;;;;-146.18;100.00;67994.34;10136022;28;20137;-68
2022/05/11 06:05:01;;;;;;;18.48;12.60;;;;;;;-146.18;100.00;67994.34;10143510;28;20544;-68
2022/05/11 06:09:57;;;;;;;16.23;13.25;;;;;;;-146.18;100.00;67994.34;10148185;28;20129;-68
2022/05/11 06:14:54;;;;;;;18.08;12.80;;;;;;;-146.18;100.00;67994.34;10150446;28;20400;-68
2022/05/11 06:19:52;;;;;;;17.02;13.02;;;;;;;-146.18;100.00;67994.34;10149726;28;20129;-68
2022/05/11 06:24:48;;;;;;;20.30;12.55;;;;;;;-146.18;100.00;67994.34;10142411;28;20181;-68
2022/05/11 06:29:53;;;;;;;17.63;11.55;;;;;;;-146.18;100.00;67994.34;10151080;28;20046;-68
2022/05/11 06:34:54;;;;;;;18.27;10.55;;;;;;;-146.18;100.00;67994.34;10142554;28;20066;-68
2022/05/11 06:39:51;;;;;;;14.65;11.00;;;;;;;-146.18;100.00;67994.34;10150949;28;20220;-67
2022/05/11 06:44:49;;;;;;;17.17;12.88;;;;;;;-146.18;100.00;67994.34;10146848;28;20042;-68
2022/05/11 06:49:46;;;;;;;16.63;12.68;;;;;;;-146.18;100.00;67994.34;10148969;28;20068;-68
2022/05/11 06:59:59;;;;;;;23.10;13.13;;;;;;;-146.18;100.00;67994.34;10147344;28;20169;-67
2022/05/11 07:04:56;;;;;;;18.77;13.00;;;;;;;-146.18;100.00;67994.34;10148335;28;20089;-67
2022/05/11 07:09:53;;;;;;;16.77;11.68;;;;;;;-146.18;100.00;67994.34;10149355;28;20034;-68
2022/05/11 07:14:53;;;;;;;17.17;11.57;;;;;;;-146.18;100.00;67994.34;10144263;28;20875;-68
2022/05/11 07:19:49;;;;;;;14.80;10.60;;;;;;;-146.18;100.00;67994.34;10145729;28;20157;-68
2022/05/11 07:24:46;;;;;;;14.30;10.43;;;;;;;-146.18;100.00;67994.34;10143597;28;20121;-68
2022/05/11 07:29:42;;;;;;;15.05;10.13;;;;;;;-146.18;100.00;67994.34;10142794;28;20081;-67
2022/05/11 07:34:39;;;;;;;17.75;9.63;;;;;;;-146.18;100.00;67994.34;10121310;28;20101;-67
2022/05/11 07:39:35;;;;;;;12.57;9.00;;;;;;;-146.18;100.00;67994.34;10147368;28;20074;-67
2022/05/11 07:44:32;;;;;;;17.13;9.65;;;;;;;-146.18;100.00;67994.34;10145958;28;20448;-67
2022/05/11 07:49:29;;;;;;;12.18;8.65;;;;;;;-146.18;100.00;67994.34;10135100;28;20071;-67
2022/05/11 07:54:25;;;;;;;12.90;8.52;;;;;;;-146.18;100.00;67994.34;10123585;28;20141;-68
2022/05/11 08:04:39;;;;;;;12.73;8.20;;;;;;;-146.18;100.00;67994.34;10146074;28;20153;-66
2022/05/11 08:09:36;;;;;;;13.63;8.25;;;;;;;-146.18;100.00;67994.34;10139741;28;20609;-67
2022/05/11 08:14:32;;;;;;;11.98;7.70;;;;;;;-146.18;100.00;67994.34;10145078;28;20596;-67
2022/05/11 08:19:29;;;;;;;14.25;7.32;;;;;;;-146.18;100.00;67994.34;10141312;28;20533;-67
2022/05/11 08:24:27;;;;;;;11.32;7.13;;;;;;;-146.18;100.00;67994.34;10143745;28;20136;-67
2022/05/11 08:34:40;;;;;;;12.38;7.50;;;;;;;-146.18;100.00;67994.34;10145764;28;20580;-67
2022/05/11 08:39:36;;;;;;;11.55;7.10;;;;;;;-146.18;100.00;67994.34;10124699;28;20479;-68
2022/05/11 08:44:36;;;;;;;12.02;6.95;;;;;;;-146.18;100.00;67994.34;10122175;28;20066;-67
2022/05/11 08:49:46;;;;;;;9.80;6.72;;;;;;;-146.18;100.00;67994.34;10136119;28;20108;-67
2022/05/11 08:54:51;;;;;;;10.48;7.15;;;;;;;-146.18;100.00;67994.34;10135997;28;20515;-67
2022/05/11 08:59:57;;;;;;;13.95;7.13;;;;;;;-146.18;100.00;67994.34;10141475;28;20114;-67
2022/05/11 09:04:59;;;;;;;13.30;7.13;;;;;;;-146.18;100.00;67994.34;10143371;28;20051;-67
2022/05/11 09:09:56;;;;;;;15.25;7.07;;;;;;;-146.18;100.00;67994.34;10146054;28;20134;-67
2022/05/11 09:14:56;;;;;;;12.65;7.28;;;;;;;-146.18;100.00;67994.34;10131302;28;20135;-67
2022/05/11 09:20:18;;;;;;;11.88;7.15;;;;;;;-146.18;100.00;67994.34;10127342;28;20078;-67
2022/05/11 09:25:18;;;;;;;10.93;6.63;;;;;;;-146.18;100.00;67994.34;10123573;28;20082;-67
2022/05/11 09:30:15;;;;;;;10.57;6.88;;;;;;;-146.18;100.00;67994.34;10132358;28;20599;-68
2022/05/11 09:35:34;;;;;;;10.57;6.40;;;;;;;-146.18;100.00;67994.34;10138290;28;20153;-68
2022/05/11 09:40:57;;;;;;;9.15;6.30;;;;;;;-146.18;100.00;67994.34;10140752;28;20050;-68
2022/05/11 09:45:54;;;;;;;14.02;6.30;;;;;;;-146.18;100.00;67994.34;10143060;28;20068;-68
2022/05/11 09:50:54;;;;;;;11.35;5.55;;;;;;;-146.18;100.00;67994.34;10140045;28;20082;-68
2022/05/11 09:55:51;;;;;;;8.43;5.40;;;;;;;-146.18;100.00;67994.34;10137727;28;20097;-67
2022/05/11 10:00:47;;;;;;;8.95;5.40;;;;;;;-146.18;100.00;67994.34;10142173;28;20508;-67
2022/05/11 10:05:50;;;;;;;10.20;5.47;;;;;;;-146.18;100.00;67994.34;10145279;28;20046;-67
2022/05/11 10:11:06;;;;;;;;;;;;;;;-146.18;100.00;67994.34;10154603;28;20074;-67
2022/05/11 10:21:50;;;;;;;;;;;;;;;-146.18;100.00;67994.34;10150797;28;20134;-68
2022/05/11 10:27:17;;;;;;;10.70;4.82;;;;;;;-146.18;100.00;67994.34;10145323;28;20306;-67
2022/05/11 10:33:05;;;;;;;8.77;4.35;;;;;;;-146.18;100.00;67994.34;10146223;28;20042;-67
2022/05/11 10:38:01;;;;;;;12.50;5.70;;;;;;;-146.18;100.00;67994.34;10118694;28;20112;-66
2022/05/11 10:43:21;;;;;;;9.05;4.53;;;;;;;-146.18;100.00;67994.34;10143362;28;20057;-66
2022/05/11 10:48:43;;;;;;;10.65;4.85;;;;;;;-146.18;100.00;67994.34;10121701;28;20485;-67
2022/05/11 10:54:05;;;;;;;9.15;4.28;;;;;;;-146.18;100.00;67994.34;10145381;28;20101;-67
2022/05/11 10:59:23;;;;;;;7.45;4.55;;;;;;;-146.18;100.00;67994.34;10148455;28;20046;-66
2022/05/11 11:04:30;;;;;;;10.38;4.65;;;;;;;-146.18;100.00;67994.34;10144094;28;20484;-66
2022/05/11 11:09:49;;;;;;;8.23;4.93;;;;;;;-146.18;100.00;67994.34;10142683;28;20074;-66
2022/05/11 11:15:09;;;;;;;7.82;5.35;;;;;;;-146.18;100.00;67994.34;10102039;28;20070;-66
2022/05/11 11:20:10;;;;;;;7.22;4.55;;;;;;;-146.18;100.00;67994.34;10147876;28;20049;-66
2022/05/11 11:25:14;;;;;;;8.93;5.03;;;;;;;-146.18;100.00;67994.34;10137911;28;20396;-66
2022/05/11 11:30:13;;;;;;;10.23;4.70;;;;;;;-146.18;100.00;67994.34;10139729;28;20141;-65
2022/05/11 11:35:22;;;;;;;7.38;4.65;;;;;;;-146.18;100.00;67994.34;10128159;28;20055;-66
2022/05/11 11:40:21;;;;;;;14.23;5.65;;;;;;;-146.18;100.00;67994.34;10131818;28;20047;-66
2022/05/11 11:45:24;;;;;;;10.18;5.55;;;;;;;-146.18;100.00;67994.34;10134780;28;20058;-67
2022/05/11 11:50:46;;;;;;;9.95;4.70;;;;;;;-146.18;100.00;67994.34;10139487;28;20078;-66
2022/05/11 11:55:42;;;;;;;10.68;5.20;;;;;;;-146.18;100.00;67994.34;10135027;28;20074;-66
2022/05/11 12:00:45;;;;;;;6.82;4.68;;;;;;;-146.18;100.00;67994.34;10144218;28;20453;-65
2022/05/11 12:05:55;;;;;;;10.43;5.70;;;;;;;-146.18;100.00;67994.34;10134286;28;20078;-66
2022/05/11 12:16:13;;;;;;;6.85;4.20;;;;;;;-146.18;100.00;67994.34;10142656;28;20092;-64
2022/05/11 12:21:55;;;;;;;8.05;4.43;;;;;;;-146.18;100.00;67994.34;10139619;28;20050;-66
2022/05/11 12:26:59;;;;;;;7.15;4.55;;;;;;;-146.18;100.00;67994.34;10106555;28;20054;-66
2022/05/11 12:31:59;;;;;;;9.20;5.80;;;;;;;-146.18;100.00;67994.34;10119520;28;20050;-66
2022/05/11 12:36:57;;;;;;;10.60;5.03;;;;;;;-146.18;100.00;67994.34;10132213;28;20042;-66
2022/05/11 12:41:53;;;;;;;7.95;4.35;;;;;;;-146.18;100.00;67994.34;10141337;28;20150;-65
2022/05/11 12:46:50;;;;;;;8.90;4.07;;;;;;;-146.18;100.00;67994.34;10136617;28;20093;-66
2022/05/11 12:51:53;;;;;;;8.75;3.63;;;;;;;-146.18;100.00;67994.34;10126584;28;20145;-65
2022/05/11 12:57:02;;;;;;;13.32;4.03;;;;;;;-146.18;100.00;67994.34;10129386;28;20172;-66
2022/05/11 13:02:26;;;;;;;8.55;3.38;;;;;;;-146.18;100.00;67994.34;10137500;28;20456;-66
2022/05/11 13:07:42;;;;;;;6.07;3.13;;;;;;;-146.18;100.00;67994.34;10138274;28;20698;-66
2022/05/11 13:12:39;;;;;;;10.23;3.97;;;;;;;-146.18;100.00;67994.34;10134172;28;20134;-66
2022/05/11 13:17:40;;;;;;;6.85;3.38;;;;;;;-146.18;100.00;67994.34;10142394;28;20078;-66
2022/05/11 13:22:37;;;;;;;7.97;3.08;;;;;;;-146.18;100.00;67994.34;10141716;28;20137;-66
2022/05/11 13:27:39;;;;;;;6.47;2.58;;;;;;;-146.18;100.00;67994.34;10134509;28;20089;-66
2022/05/11 13:32:37;;;;;;;;;;;;;;;-146.18;100.00;67994.34;10136824;28;20688;-66
2022/05/11 13:37:37;;;;;;;5.72;2.58;;;;;;;-146.18;100.00;67994.34;10135432;28;20292;-67
2022/05/11 13:42:34;;;;;;;12.93;2.50;;;;;;;-146.18;100.00;67994.34;10153510;28;20102;-67
2022/05/11 13:52:57;;;;;;;6.20;2.20;;;;;;;-146.18;100.00;67994.34;10150100;28;20046;-65
2022/05/11 13:57:53;;;;;;;6.07;2.10;;;;;;;-146.18;100.00;67994.34;10151630;28;20046;-66
2022/05/11 14:03:00;;;;;;;10.98;2.15;;;;;;;-146.18;100.00;67994.34;10133364;28;20713;-66
2022/05/11 14:07:57;;;;;;;7.15;2.17;;;;;;;-146.18;100.00;67994.34;10143063;28;20515;-65
2022/05/11 14:12:53;;;;;;;7.25;2.50;;;;;;;-146.18;100.00;67994.34;10143140;28;20142;-65
2022/05/11 14:17:51;;;;;;;7.25;2.33;;;;;;;-146.18;100.00;67994.34;10139476;28;20042;-65
2022/05/11 14:22:47;;;;;;;6.53;2.75;;;;;;;-146.18;100.00;67994.34;10139131;28;20467;-65
2022/05/11 14:27:44;;;;;;;9.18;2.40;;;;;;;-146.18;100.00;67994.34;10140733;28;20053;-64
2022/05/11 14:32:45;;;;;;;7.75;2.45;;;;;;;-146.18;100.00;67994.34;10143521;28;20109;-65
2022/05/11 14:37:42;;;;;;;5.25;1.95;;;;;;;-146.18;100.00;67994.34;10138532;28;20077;-65
2022/05/11 14:42:43;;;;;;;5.53;2.13;;;;;;;-146.18;100.00;67994.34;10148547;28;20594;-65
2022/05/11 14:47:43;;;;;;;8.60;2.13;;;;;;;-146.18;100.00;67994.34;10144452;28;20042;-65
2022/05/11 14:52:40;;;;;;;9.40;1.90;;;;;;;-146.18;100.00;67994.34;10143186;28;20555;-66
2022/05/11 15:02:52;;;;;;;5.47;1.73;;;;;;;-146.18;100.00;67994.34;10136661;28;20668;-66
2022/05/11 15:07:48;;;;;;;5.15;1.40;;;;;;;-146.18;100.00;67994.34;10124042;28;20148;-65
2022/05/11 15:18:07;;;;;;;9.30;1.80;;;;;;;-146.18;100.00;67994.34;10130338;28;21207;-65
2022/05/11 15:23:05;;;;;;;5.38;1.38;;;;;;;-146.18;100.00;67994.34;10131463;28;20144;-66
2022/05/11 15:28:02;;;;;;;6.43;1.70;;;;;;;-146.18;100.00;67994.34;10133334;28;20148;-67
2022/05/11 15:32:59;;;;;;;4.82;1.60;;;;;;;-146.18;100.00;67994.34;10135645;28;20678;-67
2022/05/11 15:37:56;;;;;;;9.68;1.88;;;;;;;-146.18;100.00;67994.34;10138937;28;20128;-66
2022/05/11 15:42:55;;;;;;;6.22;1.55;;;;;;;-146.18;100.00;67994.34;10134414;28;20055;-66
2022/05/11 15:48:11;;;;;;;7.28;1.80;;;;;;;-146.18;100.00;67994.34;10134408;28;20049;-66
2022/05/11 15:53:22;;;;;;;5.45;1.33;;;;;;;-146.18;100.00;67994.34;10138925;28;20054;-66
2022/05/11 15:58:19;;;;;;;4.40;1.10;;;;;;;-146.18;100.00;67994.34;10134920;28;20093;-65
2022/05/11 16:03:17;;;;;;;7.28;1.45;;;;;;;-146.18;100.00;67994.34;10140963;28;20062;-66
2022/05/11 16:08:14;;;;;;;7.82;1.50;;;;;;;-146.18;100.00;67994.34;10129092;28;20049;-66
2022/05/11 16:13:10;;;;;;;9.70;1.90;;;;;;;-146.18;100.00;67994.34;10136763;28;20077;-65
2022/05/11 16:23:23;;;;;;;11.57;1.83;;;;;;;-146.18;100.00;67994.34;10138759;28;20050;-65
2022/05/11 16:28:19;;;;;;;8.23;2.20;;;;;;;-146.18;100.00;67994.34;10139335;28;20042;-66
2022/05/11 16:33:16;;;;;;;6.32;2.13;;;;;;;-146.18;100.00;67994.34;10134829;28;20146;-66
2022/05/11 16:38:13;;;;;;;10.02;2.58;;;;;;;-146.18;100.00;67994.34;10132314;28;20069;-66
2022/05/11 16:43:09;;;;;;;8.75;2.05;;;;;;;-146.18;100.00;67994.34;10147417;28;20046;-67
2022/05/11 16:48:06;;;;;;;11.65;2.80;;;;;;;-146.18;100.00;67994.34;10138056;28;20051;-68
2022/05/11 16:53:03;;;;;;;11.23;3.42;;;;;;;-146.18;100.00;67994.34;10136520;28;20105;-67
2022/05/11 16:58:00;;;;;;;14.57;3.47;;;;;;;-146.18;100.00;67994.34;10139622;28;20053;-66
2022/05/11 17:02:56;;;;;;;10.02;2.85;;;;;;;-146.18;100.00;67994.34;10139001;28;20138;-67
2022/05/11 17:07:53;;;;;;;9.27;2.55;;;;;;;-146.18;100.00;67994.34;10143871;28;20562;-68
2022/05/11 17:12:49;;;;;;;13.38;3.58;;;;;;;-146.18;100.00;67994.34;10150874;28;20441;-67
2022/05/11 17:17:47;;;;;;;12.68;4.35;;;;;;;-146.18;100.00;67994.34;10138340;28;20046;-66
2022/05/11 17:22:43;;;;;;;10.18;2.80;;;;;;;-146.18;100.00;67994.34;10150265;28;20077;-67
2022/05/11 17:27:40;;;;;;;11.57;3.83;;;;;;;-146.18;100.00;67994.34;10145318;28;20137;-67
2022/05/11 17:32:38;;;;;;;13.90;2.60;;;;;;;-146.18;100.00;67994.34;10153568;28;20046;-67
2022/05/11 17:37:35;;;;;;;13.20;2.90;;;;;;;-146.18;100.00;67994.34;10144520;28;20054;-67
2022/05/11 17:42:34;;;;;;;10.95;3.35;;;;;;;-146.18;100.00;67994.34;10152610;28;20120;-67
2022/05/11 17:47:31;;;;;;;12.27;3.05;;;;;;;-146.18;100.00;67994.34;10145848;28;20116;-67
2022/05/11 17:52:27;;;;;;;12.70;3.42;;;;;;;-146.18;100.00;67994.34;10151401;28;20085;-66
2022/05/11 17:57:25;;;;;;;17.30;4.07;;;;;;;-146.18;100.00;67994.34;10147168;28;20042;-66
2022/05/11 18:02:21;;;;;;;12.77;3.10;;;;;;;-146.18;100.00;67994.34;10151279;28;20112;-66
2022/05/11 18:07:18;;;;;;;18.67;3.45;;;;;;;-146.18;100.00;67994.34;10131798;28;20327;-66
2022/05/11 18:12:14;;;;;;;17.20;3.70;;;;;;;-146.18;100.00;67994.34;10132679;28;20046;-66
2022/05/11 18:17:11;;;;;;;10.63;2.88;;;;;;;-146.18;100.00;67994.34;10134975;28;20137;-66
2022/05/11 18:22:09;;;;;;;14.48;3.22;;;;;;;-146.18;100.00;67994.34;10151807;28;20050;-66
2022/05/11 18:27:06;;;;;;;11.80;3.03;;;;;;;-146.18;100.00;67994.34;10145241;28;20077;-66
2022/05/11 18:32:03;;;;;;;15.07;3.22;;;;;;;-146.18;100.00;67994.34;10148600;28;20042;-66
2022/05/11 18:36:59;;;;;;;13.52;2.50;;;;;;;-146.18;100.00;67994.34;10140638;28;20467;-66
2022/05/11 18:41:56;;;;;;;13.32;2.60;;;;;;;-146.18;100.00;67994.34;10151903;28;20046;-66
2022/05/11 18:46:52;;;;;;;12.30;2.47;;;;;;;-146.18;100.00;67994.34;10140607;28;20089;-66
2022/05/11 18:51:49;;;;;;;11.90;2.47;;;;;;;-146.18;100.00;67994.34;10135725;28;20146;-67
2022/05/11 18:56:45;;;;;;;10.50;1.90;;;;;;;-146.18;100.00;67994.34;10143034;28;20046;-65
2022/05/11 19:01:43;;;;;;;11.82;2.05;;;;;;;-146.18;100.00;67994.34;10143198;28;20050;-66
2022/05/11 19:06:40;;;;;;;9.10;1.83;;;;;;;-146.18;100.00;67994.34;10131042;28;20455;-66
2022/05/11 19:11:38;;;;;;;9.73;1.83;;;;;;;-146.18;100.00;67994.34;10147572;28;20076;-65
2022/05/11 19:16:35;;;;;;;12.40;1.83;;;;;;;-146.18;100.00;67994.34;10139140;28;20101;-65
2022/05/11 19:21:32;;;;;;;9.07;2.17;;;;;;;-146.18;100.00;67994.34;10150333;28;20054;-67
2022/05/11 19:26:29;;;;;;;9.25;2.47;;;;;;;-146.18;100.00;67994.34;10138533;28;20053;-67
2022/05/11 19:31:26;;;;;;;10.10;2.15;;;;;;;-146.18;100.00;67994.34;10144397;28;20140;-66
2022/05/11 19:36:22;;;;;;;8.23;1.77;;;;;;;-146.18;100.00;67994.34;10134765;28;20389;-66
2022/05/11 19:41:19;;;;;;;13.15;2.38;;;;;;;-146.18;100.00;67994.34;10150206;28;20074;-66
2022/05/11 19:46:17;;;;;;;13.50;3.20;;;;;;;-146.18;100.00;67994.34;10142584;28;20409;-66
2022/05/11 19:51:21;;;;;;;12.00;2.95;;;;;;;;;;10177082;28;20642;-66
2022/05/11 19:56:19;;;;;;;13.70;2.25;;;;;;;;;;10087814;28;20104;-67
2022/05/11 20:01:17;;;;;;;8.77;1.58;;;;;;;;;;10093808;28;20114;-66
2022/05/11 20:06:16;;;;;;;12.88;2.33;;;;;;;;;;10092767;28;20058;-66
2022/05/11 20:11:12;;;;;;;8.52;1.58;;;;;;;;;;10086768;28;20051;-66
2022/05/11 20:16:09;;;;;;;9.60;1.70;;;;;;;;;;10083692;28;20089;-66
2022/05/11 20:21:07;;;;;;;11.38;2.05;;;;;;;;;;10076791;28;20058;-66
2022/05/11 20:26:08;;;;;;;11.38;2.30;;;;;;;;;;10086537;28;20051;-67
2022/05/11 20:36:20;;;;;;;7.78;1.52;;;;;;;;;;10082498;28;20070;-66
2022/05/11 20:41:16;;;;;;;10.30;2.50;;;;;;;;;;10092834;28;20569;-66
2022/05/11 20:46:12;;;;;;;12.75;2.40;;;;;;;;;;10083062;28;20812;-64
2022/05/11 20:51:09;;;;;;;13.82;3.00;;;;;;;;;;10087653;28;20051;-66
2022/05/11 20:56:05;;;;;;;9.02;2.00;;;;;;;;;;10084558;28;20079;-68
2022/05/11 21:01:02;;;;;;;12.25;2.00;;;;;;;;;;10057048;28;20039;-68
2022/05/11 21:06:00;;;;;;;14.93;3.08;;;;;;;;;;10053320;28;20063;-68
2022/05/11 21:10:56;;;;;;;9.98;2.10;;;;;;;;;;10064599;28;20082;-68
2022/05/11 21:15:52;;;;;;;9.85;2.13;;;;;;;;;;10068527;28;20051;-66
2022/05/11 21:20:51;;;;;;;9.60;2.42;;;;;;;;;;10066808;28;20075;-67
2022/05/11 21:25:47;;;;;;;10.57;2.00;;;;;;;;;;10071208;28;20547;-68
2022/05/11 21:30:43;;;;;;;12.90;2.60;;;;;;;;;;10063285;28;20084;-67
2022/05/11 21:35:40;;;;;;;10.13;2.65;;;;;;;;;;10062260;28;20102;-67
2022/05/11 21:40:37;;;;;;;8.82;1.80;;;;;;;;;;10065961;28;20663;-67
2022/05/11 21:45:38;;;;;;;13.15;2.42;;;;;;;;;;10066640;28;20130;-67
2022/05/11 21:50:35;;;;;;;10.50;1.92;;;;;;;;;;10065204;28;20046;-68
2022/05/11 21:55:32;;;;;;;8.40;1.88;;;;;;;;;;10061756;28;20125;-68
2022/05/11 22:00:29;;;;;;;9.43;2.28;;;;;;;;;;10068834;28;20073;-67
2022/05/11 22:05:25;;;;;;;11.10;1.90;;;;;;;;;;10092265;28;20047;-68
2022/05/11 22:10:22;;;;;;;9.07;1.70;;;;;;;;;;10066639;28;20081;-66
2022/05/11 22:15:21;;;;;;;11.32;2.35;;;;;;;;;;10058105;28;20540;-65
2022/05/11 22:20:19;;;;;;;8.10;2.20;;;;;;;;;;10066451;28;20051;-67
2022/05/11 22:25:16;;;;;;;12.40;2.40;;;;;;;;;;10058861;28;20047;-67
2022/05/11 22:30:14;;;;;;;12.95;2.20;;;;;;;;;;10058150;28;20066;-66
2022/05/11 22:35:10;;;;;;;14.13;2.50;;;;;;;;;;10057585;28;20100;-65
2022/05/11 22:40:08;;;;;;;9.43;2.17;;;;;;;;;;10060328;28;20055;-67
2022/05/11 22:45:05;;;;;;;11.05;2.40;;;;;;;;;;10064464;28;20193;-66
2022/05/11 22:50:03;;;;;;;9.80;1.70;;;;;;;;;;10064601;28;20054;-64
2022/05/11 22:54:59;;;;;;;11.48;3.22;;;;;;;;;;10065590;29;20127;-64
2022/05/11 22:59:56;;;;;;;12.18;2.20;;;;;;;;;;10053085;28;20075;-64
2022/05/11 23:04:52;;;;;;;13.05;2.88;;;;;;;;;;10054600;28;20051;-67
2022/05/11 23:09:48;;;;;;;13.73;2.80;;;;;;;;;;10058544;28;20134;-65
2022/05/11 23:14:44;;;;;;;9.07;2.50;;;;;;;;;;10061600;28;20104;-65
2022/05/11 23:19:41;;;;;;;12.43;3.08;;;;;;;;;;10059937;28;20142;-65
2022/05/11 23:24:38;;;;;;;11.88;2.85;;;;;;;;;;10056430;28;20155;-67
2022/05/11 23:29:34;;;;;;;11.40;2.30;;;;;;;;;;10064878;28;20138;-66
2022/05/11 23:34:30;;;;;;;10.52;2.75;;;;;;;;;;10060634;28;20040;-65
2022/05/11 23:39:27;;;;;;;13.10;3.20;;;;;;;;;;10064443;28;20105;-64
2022/05/11 23:44:23;;;;;;;11.55;2.80;;;;;;;;;;10060746;28;20043;-65
2022/05/11 23:49:19;;;;;;;12.73;2.90;;;;;;;;;;10059345;28;20074;-68
2022/05/11 23:54:16;;;;;;;13.40;3.35;;;;;;;;;;10044464;28;20043;-67
2022/05/11 23:59:12;;;;;;;17.23;2.67;;;;;;;;;;10064470;28;20138;-67
